Time;durP1;ratioP1;P1;durP2;ratioP2;P2;SDS_P1;SDS_P2;PMS_P1;PMS_P2;Temp;Humidity;BMP_temperature;BMP_pressure;BME280_temperature;BME280_humidity;BME280_pressure;Samples;Min_cycle;Max_cycle;Signal;HPM_P1;HPM_P2
2023/05/10 00:01:55;;;;;;;;;;;;;;;15.59;35.12;100249.03;4989074;27;98908;-80
2023/05/10 00:04:28;;;;;;;;;;;;;;;15.57;35.26;100245.84;4987112;27;98923;-77
2023/05/10 00:06:56;;;;;;;;;;;;;;;15.53;35.36;100242.13;4965762;27;99770;-80
2023/05/10 00:09:25;;;;;;;;;;;;;;;15.52;35.33;100242.44;4969444;27;98052;-77
2023/05/10 00:11:51;;;;;;;;;;;;;;;15.49;35.37;100241.13;4980560;27;97807;-81
2023/05/10 00:14:26;;;;;;;;;;;;;;;15.46;35.50;100241.75;4966654;27;97891;-77
2023/05/10 00:16:58;;;;;;;;;;;;;;;15.43;35.52;100240.44;4964291;27;98259;-76
2023/05/10 00:19:25;;;;;;;;;;;;;;;15.41;35.41;100231.81;4970928;27;98097;-81
2023/05/10 00:21:57;;;;;;;;;;;;;;;15.39;35.33;100233.19;4965733;27;98391;-76
2023/05/10 00:24:29;;;;;;;;;;;;;;;15.36;35.24;100231.88;4941888;27;98216;-76
2023/05/10 00:26:57;;;;;;;;;;;;;;;15.34;35.53;100236.84;4950788;27;98308;-80
2023/05/10 00:29:24;;;;;;;;;;;;;;;15.31;35.40;100232.00;4962668;27;98537;-77
2023/05/10 00:31:53;;;;;;;;;;;;;;;15.29;35.34;100228.81;4969538;27;98195;-76
2023/05/10 00:34:25;;;;;;;;;;;;;;;15.26;35.56;100225.91;4945555;27;98500;-76
2023/05/10 00:36:57;;;;;;;;;;;;;;;15.23;35.31;100219.16;4971111;27;98417;-80
2023/05/10 00:39:26;;;;;;;;;;;;;;;15.20;35.54;100219.75;4952832;27;98003;-81
2023/05/10 00:41:53;;;;;;;;;;;;;;;15.17;35.36;100218.47;4967282;27;98096;-76
2023/05/10 00:44:19;;;;;;;;;;;;;;;15.16;35.40;100221.47;4943559;27;98342;-80
2023/05/10 00:46:48;;;;;;;;;;;;;;;15.13;35.41;100212.03;4949278;27;98264;-76
2023/05/10 00:49:18;;;;;;;;;;;;;;;15.10;35.24;100218.06;4954547;27;98144;-81
2023/05/10 00:51:50;;;;;;;;;;;;;;;15.09;35.32;100215.63;4967776;27;98429;-76
2023/05/10 00:54:17;;;;;;;;;;;;;;;15.05;35.38;100218.19;4952788;27;98525;-80
2023/05/10 00:56:48;;;;;;;;;;;;;;;15.02;35.68;100218.78;4964533;27;97967;-80
2023/05/10 00:59:19;;;;;;;;;;;;;;;15.01;35.58;100219.06;4953893;27;97931;-76
2023/05/10 01:01:47;;;;;;;;;;;;;;;14.98;35.24;100218.56;4968937;27;99486;-76
2023/05/10 01:04:13;;;;;;;;;;;;;;;14.95;35.23;100213.75;4970668;27;98259;-80
2023/05/10 01:06:46;;;;;;;;;;;;;;;14.94;35.59;100203.22;4953198;27;97826;-76
2023/05/10 01:09:13;;;;;;;;;;;;;;;14.90;35.39;100216.56;4986624;27;97961;-80
2023/05/10 01:11:40;;;;;;;;;;;;;;;14.89;35.74;100201.38;4963910;27;98042;-76
2023/05/10 01:14:08;;;;;;;;;;;;;;;14.87;35.59;100216.38;4990265;27;100255;-80
2023/05/10 01:16:37;;;;;;;;;;;;;;;14.85;35.56;100207.72;4979850;27;98091;-80
2023/05/10 01:19:06;;;;;;;;;;;;;;;14.82;35.61;100206.44;4982706;27;98132;-80
2023/05/10 01:21:52;;;;;;;;;;;;;;;14.79;35.74;100204.31;4969018;27;98066;-80
2023/05/10 01:24:46;;;;;;;;;;;;;;;14.78;35.46;100204.63;4992078;27;97972;-80
2023/05/10 01:27:33;;;;;;;;;;;;;;;14.75;35.75;100205.22;5018239;27;97974;-76
2023/05/10 01:30:42;;;;;;;;;;;;;;;14.72;35.41;100201.19;5005019;27;98185;-76
2023/05/10 01:33:18;;;;;;;;;;;;;;;14.68;35.57;100202.91;4973926;27;98082;-76
2023/05/10 01:36:25;;;;;;;;;;;;;;;14.66;35.72;100196.97;4991548;27;97857;-76
2023/05/10 01:38:59;;;;;;;;;;;;;;;14.63;35.69;100194.88;4984078;27;98311;-76
2023/05/10 01:41:38;;;;;;;;;;;;;;;14.60;35.78;100200.88;5002662;27;97798;-76
2023/05/10 01:44:15;;;;;;;;;;;;;;;14.58;35.84;100201.19;4997778;27;98208;-76
2023/05/10 01:46:42;;;;;;;;;;;;;;;14.56;35.48;100197.16;4980569;27;98112;-80
2023/05/10 01:49:26;;;;;;;;;;;;;;;14.53;35.86;100201.28;4962260;27;97931;-80
2023/05/10 01:51:59;;;;;;;;;;;;;;;14.55;35.57;100201.00;4947976;27;98166;-77
2023/05/10 01:54:26;;;;;;;;;;;;;;;14.60;36.02;100198.16;4986514;27;98595;-80
2023/05/10 01:56:59;;;;;;;;;;;;;;;14.65;35.87;100198.88;4971413;27;98205;-80
2023/05/10 01:59:27;;;;;;;;;;;;;;;14.69;35.45;100196.34;4960401;27;98009;-80
2023/05/10 02:01:54;;;;;;;;;;;;;;;14.72;35.87;100206.63;4972367;27;98044;-80
2023/05/10 02:04:21;;;;;;;;;;;;;;;14.74;35.89;100199.00;4988921;27;99735;-79
2023/05/10 02:06:47;;;;;;;;;;;;;;;14.75;35.55;100199.78;4975962;27;98006;-80
2023/05/10 02:09:20;;;;;;;;;;;;;;;14.76;35.91;100201.38;4983963;27;98359;-76
2023/05/10 02:11:50;;;;;;;;;;;;;;;14.76;35.69;100204.09;4975909;27;97979;-76
2023/05/10 02:14:19;;;;;;;;;;;;;;;14.75;35.78;100197.09;4983837;27;98672;-76
2023/05/10 02:16:47;;;;;;;;;;;;;;;14.74;35.87;100199.00;4981783;27;98618;-80
2023/05/10 02:19:21;;;;;;;;;;;;;;;14.73;35.72;100197.38;4987411;27;97953;-76
2023/05/10 02:21:51;;;;;;;;;;;;;;;14.71;35.63;100194.97;4982800;27;98157;-81
2023/05/10 02:24:20;;;;;;;;;;;;;;;14.71;35.65;100196.88;4966540;27;98103;-76
2023/05/10 02:26:46;;;;;;;;;;;;;;;14.69;35.96;100188.22;4992111;27;98143;-76
2023/05/10 02:29:13;;;;;;;;;;;;;;;14.67;35.98;100182.31;4969772;27;98337;-79
2023/05/10 02:31:43;;;;;;;;;;;;;;;14.66;35.66;100180.72;4967312;27;98097;-78
2023/05/10 02:34:20;;;;;;;;;;;;;;;14.64;35.75;100180.19;4974080;27;98411;-76
2023/05/10 02:36:47;;;;;;;;;;;;;;;14.61;35.91;100184.28;4990790;27;97947;-79
2023/05/10 02:39:18;;;;;;;;;;;;;;;14.59;35.60;100181.09;4971186;27;98187;-76
2023/05/10 02:41:46;;;;;;;;;;;;;;;14.55;35.65;100190.94;4952630;27;97979;-80
2023/05/10 02:44:13;;;;;;;;;;;;;;;14.54;35.90;100178.50;4969340;27;98373;-80
2023/05/10 02:46:41;;;;;;;;;;;;;;;14.53;35.67;100178.78;4971542;27;98113;-79
2023/05/10 02:49:07;;;;;;;;;;;;;;;14.49;35.77;100178.56;4972489;27;98133;-76
2023/05/10 02:51:37;;;;;;;;;;;;;;;14.47;36.01;100183.47;4993295;27;98290;-76
2023/05/10 02:54:20;;;;;;;;;;;;;;;14.45;35.96;100189.19;4970675;27;98148;-78
2023/05/10 02:56:56;;;;;;;;;;;;;;;14.43;35.64;100182.47;4971319;27;98405;-80
2023/05/10 02:59:22;;;;;;;;;;;;;;;14.41;36.09;100184.66;4990325;27;98220;-79
2023/05/10 03:01:48;;;;;;;;;;;;;;;14.39;35.88;100184.16;4990242;27;98584;-79
2023/05/10 03:04:14;;;;;;;;;;;;;;;14.38;36.00;100179.81;4972335;27;98036;-79
2023/05/10 03:06:52;;;;;;;;;;;;;;;14.37;35.83;100179.03;4977074;27;99103;-76
2023/05/10 03:09:20;;;;;;;;;;;;;;;14.36;35.88;100172.00;5001253;27;98095;-77
2023/05/10 03:12:04;;;;;;;;;;;;;;;14.35;35.75;100175.81;4973848;27;98748;-77
2023/05/10 03:14:29;;;;;;;;;;;;;;;14.35;35.68;100170.41;4984647;27;98214;-79
2023/05/10 03:17:03;;;;;;;;;;;;;;;14.34;35.84;100171.47;5012827;27;98024;-79
2023/05/10 03:19:47;;;;;;;;;;;;;;;14.34;36.05;100162.53;5001213;27;98075;-79
2023/05/10 03:22:14;;;;;;;;;;;;;;;14.34;36.05;100166.06;4993801;27;98100;-80
2023/05/10 03:24:44;;;;;;;;;;;;;;;14.34;35.96;100168.78;4974694;27;98457;-76
2023/05/10 03:27:11;;;;;;;;;;;;;;;14.33;36.07;100175.31;4981613;27;99651;-79
2023/05/10 03:29:38;;;;;;;;;;;;;;;14.34;35.70;100178.81;4979661;27;98051;-79
2023/05/10 03:32:08;;;;;;;;;;;;;;;14.34;35.69;100181.53;4977138;27;97907;-76
2023/05/10 03:34:42;;;;;;;;;;;;;;;14.34;35.69;100185.03;4991316;27;98520;-79
2023/05/10 03:37:08;;;;;;;;;;;;;;;14.34;35.86;100176.09;4987168;27;98167;-79
2023/05/10 03:39:37;;;;;;;;;;;;;;;14.34;35.97;100186.94;4969078;27;98317;-76
2023/05/10 03:42:04;;;;;;;;;;;;;;;14.34;35.75;100187.75;4965414;27;97943;-79
2023/05/10 03:44:33;;;;;;;;;;;;;;;14.35;36.10;100180.44;4973493;27;98150;-76
2023/05/10 03:47:03;;;;;;;;;;;;;;;14.35;35.80;100177.72;4986164;27;100804;-76
2023/05/10 03:49:35;;;;;;;;;;;;;;;14.35;35.95;100169.59;4987853;27;98557;-77
2023/05/10 03:52:05;;;;;;;;;;;;;;;14.35;36.06;100177.72;4988647;27;98038;-76
2023/05/10 03:54:32;;;;;;;;;;;;;;;14.36;35.92;100174.72;4971819;27;98242;-79
2023/05/10 03:57:02;;;;;;;;;;;;;;;14.35;35.83;100175.81;4973839;27;98181;-76
2023/05/10 03:59:31;;;;;;;;;;;;;;;14.36;35.92;100174.72;4987768;27;98106;-76
2023/05/10 04:01:58;;;;;;;;;;;;;;;14.38;35.82;100171.69;5000422;27;98342;-76
2023/05/10 04:04:24;;;;;;;;;;;;;;;14.37;36.04;100179.03;4955465;27;98218;-79
2023/05/10 04:06:50;;;;;;;;;;;;;;;14.38;35.69;100177.94;5000762;27;98070;-79
2023/05/10 04:09:27;;;;;;;;;;;;;;;14.40;36.16;100177.63;4970511;27;98063;-76
2023/05/10 04:11:57;;;;;;;;;;;;;;;14.40;36.07;100173.00;5003809;27;98283;-76
2023/05/10 04:14:27;;;;;;;;;;;;;;;14.42;36.09;100184.38;4991569;27;98119;-76
2023/05/10 04:16:56;;;;;;;;;;;;;;;14.41;35.93;100166.47;5001855;27;98505;-76
2023/05/10 04:19:23;;;;;;;;;;;;;;;14.43;35.76;100172.41;4970799;27;98592;-79
2023/05/10 04:21:49;;;;;;;;;;;;;;;14.45;35.79;100166.69;4970565;27;98333;-76
2023/05/10 04:24:16;;;;;;;;;;;;;;;14.45;36.01;100170.19;4967169;27;98087;-79
2023/05/10 04:26:55;;;;;;;;;;;;;;;14.47;35.88;100169.91;4991087;27;98155;-76
2023/05/10 04:29:22;;;;;;;;;;;;;;;14.48;35.66;100177.72;5005268;27;97878;-76
2023/05/10 04:31:50;;;;;;;;;;;;;;;14.49;35.91;100171.22;4975273;27;98229;-79
2023/05/10 04:34:22;;;;;;;;;;;;;;;14.51;35.82;100175.56;4974335;27;98104;-79
2023/05/10 04:36:48;;;;;;;;;;;;;;;14.52;35.76;100171.75;4990399;27;98530;-79
2023/05/10 04:39:15;;;;;;;;;;;;;;;14.54;36.09;100177.66;4989405;27;97964;-80
2023/05/10 04:41:45;;;;;;;;;;;;;;;14.55;35.70;100171.16;4984577;27;99126;-76
2023/05/10 04:44:13;;;;;;;;;;;;;;;14.56;35.99;100170.84;4967861;27;99060;-77
2023/05/10 04:46:40;;;;;;;;;;;;;;;14.59;35.73;100178.38;4973518;27;98215;-76
2023/05/10 04:49:07;;;;;;;;;;;;;;;14.62;35.72;100179.66;4972713;27;99951;-79
2023/05/10 04:51:33;;;;;;;;;;;;;;;14.65;35.68;100176.38;4975772;27;98419;-79
2023/05/10 04:54:00;;;;;;;;;;;;;;;14.69;35.68;100171.94;4981455;27;98043;-79
2023/05/10 04:56:26;;;;;;;;;;;;;;;14.74;35.77;100171.88;4988506;27;99308;-79
2023/05/10 04:58:53;;;;;;;;;;;;;;;14.80;35.54;100170.63;4969044;27;98284;-79
2023/05/10 05:01:23;;;;;;;;;;;;;;;14.87;35.91;100175.66;4973207;27;98243;-77
2023/05/10 05:03:52;;;;;;;;;;;;;;;14.97;35.71;100170.00;4969949;27;98011;-77
2023/05/10 05:06:20;;;;;;;;;;;;;;;15.09;35.58;100170.31;4972235;27;98738;-77
2023/05/10 05:08:49;;;;;;;;;;;;;;;15.19;35.41;100164.66;4970740;27;98498;-77
2023/05/10 05:11:16;;;;;;;;;;;;;;;15.32;35.49;100162.22;4985465;27;98129;-79
2023/05/10 05:13:46;;;;;;;;;;;;;;;15.44;35.26;100162.47;4961751;27;98298;-77
2023/05/10 05:16:14;;;;;;;;;;;;;;;15.58;35.26;100162.44;4955889;27;98229;-79
2023/05/10 05:18:42;;;;;;;;;;;;;;;15.71;35.51;100158.88;4984322;27;97985;-79
2023/05/10 05:21:18;;;;;;;;;;;;;;;15.85;35.60;100145.25;4970409;27;98640;-77
2023/05/10 05:23:45;;;;;;;;;;;;;;;16.01;35.06;100148.38;4969592;27;100453;-77
2023/05/10 05:26:12;;;;;;;;;;;;;;;16.16;35.14;100151.50;4982832;27;98432;-76
2023/05/10 05:28:39;;;;;;;;;;;;;;;16.32;35.21;100146.47;4975579;27;98098;-77
2023/05/10 05:31:07;;;;;;;;;;;;;;;16.50;35.23;100151.97;4970790;27;98162;-79
2023/05/10 05:33:34;;;;;;;;;;;;;;;16.67;35.18;100147.41;4987990;27;97937;-77
2023/05/10 05:36:04;;;;;;;;;;;;;;;16.84;35.04;100141.22;4970449;27;97894;-77
2023/05/10 05:38:32;;;;;;;;;;;;;;;17.00;35.01;100149.75;4966615;27;98008;-79
2023/05/10 05:40:58;;;;;;;;;;;;;;;17.20;34.86;100147.53;4969709;27;97841;-77
2023/05/10 05:43:25;;;;;;;;;;;;;;;17.38;34.84;100155.41;4972349;27;98483;-73
2023/05/10 05:45:53;;;;;;;;;;;;;;;17.60;34.84;100148.16;4991319;27;99857;-73
2023/05/10 05:48:20;;;;;;;;;;;;;;;17.81;34.75;100149.16;4982921;27;98663;-73
2023/05/10 05:50:46;;;;;;;;;;;;;;;18.04;34.65;100146.22;4958580;27;98047;-73
2023/05/10 05:53:15;;;;;;;;;;;;;;;18.28;34.49;100146.47;4976656;27;98262;-73
2023/05/10 05:55:52;;;;;;;;;;;;;;;18.52;34.39;100140.44;4968833;27;99935;-73
2023/05/10 05:58:21;;;;;;;;;;;;;;;18.82;34.43;100140.44;4972326;27;101483;-74
2023/05/10 06:00:47;;;;;;;;;;;;;;;19.13;34.36;100143.63;4969118;27;98131;-74
2023/05/10 06:03:15;;;;;;;;;;;;;;;19.44;34.28;100145.16;4972862;27;100007;-74
2023/05/10 06:05:42;;;;;;;;;;;;;;;19.80;34.07;100135.53;4970889;27;99038;-74
2023/05/10 06:08:13;;;;;;;;;;;;;;;20.25;34.07;100137.47;4984826;27;98246;-74
2023/05/10 06:10:40;;;;;;;;;;;;;;;20.88;33.60;100145.41;4973028;27;98194;-74
2023/05/10 06:13:07;;;;;;;;;;;;;;;21.41;33.45;100146.22;4968713;27;98073;-74
2023/05/10 06:15:34;;;;;;;;;;;;;;;21.81;33.48;100148.91;4959358;27;98173;-74
2023/05/10 06:18:02;;;;;;;;;;;;;;;22.39;33.21;100152.00;4964779;27;98615;-74
2023/05/10 06:20:31;;;;;;;;;;;;;;;22.76;33.20;100152.53;4962822;27;98413;-75
2023/05/10 06:22:58;;;;;;;;;;;;;;;23.07;33.28;100150.91;4954022;27;98262;-74
2023/05/10 06:25:25;;;;;;;;;;;;;;;23.55;32.87;100148.78;4949854;27;100924;-75
2023/05/10 06:27:56;;;;;;;;;;;;;;;24.28;32.79;100140.69;4949058;27;97986;-75
2023/05/10 06:30:27;;;;;;;;;;;;;;;24.87;32.47;100147.56;4981011;27;98381;-75
2023/05/10 06:32:55;;;;;;;;;;;;;;;25.43;32.28;100155.06;4965284;27;98999;-75
2023/05/10 06:35:23;;;;;;;;;;;;;;;25.92;32.32;100154.06;4960716;27;98570;-75
2023/05/10 06:37:51;;;;;;;;;;;;;;;26.34;32.07;100152.88;4969881;27;98014;-75
2023/05/10 06:40:18;;;;;;;;;;;;;;;26.76;32.13;100157.97;4976903;27;98628;-75
2023/05/10 06:42:48;;;;;;;;;;;;;;;27.09;32.15;100159.78;4950159;27;97996;-75
2023/05/10 06:45:15;;;;;;;;;;;;;;;27.43;32.20;100165.09;4964440;27;98184;-75
2023/05/10 06:47:46;;;;;;;;;;;;;;;27.75;32.14;100164.47;4965917;27;99495;-75
2023/05/10 06:50:14;;;;;;;;;;;;;;;28.06;32.19;100163.75;4966884;27;98193;-75
2023/05/10 06:52:42;;;;;;;;;;;;;;;28.37;31.91;100159.47;4962566;27;98040;-75
2023/05/10 06:55:08;;;;;;;;;;;;;;;28.65;31.88;100157.03;4960541;27;97963;-75
2023/05/10 06:57:36;;;;;;;;;;;;;;;28.93;31.85;100153.47;4959614;27;99333;-75
2023/05/10 07:00:06;;;;;;;;;;;;;;;29.21;31.83;100156.19;4967062;27;98258;-75
2023/05/10 07:02:34;;;;;;;;;;;;;;;29.52;31.94;100153.69;4949888;27;97979;-75
2023/05/10 07:05:01;;;;;;;;;;;;;;;29.81;32.06;100149.59;4961188;27;98198;-76
2023/05/10 07:07:28;;;;;;;;;;;;;;;30.12;31.90;100149.00;4980118;27;98610;-75
2023/05/10 07:09:56;;;;;;;;;;;;;;;30.45;31.58;100145.56;4980899;27;98249;-75
2023/05/10 07:12:24;;;;;;;;;;;;;;;30.83;31.84;100153.22;4950051;27;98479;-76
2023/05/10 07:14:52;;;;;;;;;;;;;;;31.21;31.59;100148.44;4969835;27;102585;-76
2023/05/10 07:17:20;;;;;;;;;;;;;;;31.61;31.28;100143.97;4958319;27;98085;-76
2023/05/10 07:19:47;;;;;;;;;;;;;;;32.02;31.44;100151.38;4974512;27;97857;-76
2023/05/10 07:22:18;;;;;;;;;;;;;;;32.42;31.35;100145.97;4968248;27;99466;-77
2023/05/10 07:24:45;;;;;;;;;;;;;;;32.81;30.88;100134.13;4966203;27;97974;-76
2023/05/10 07:27:12;;;;;;;;;;;;;;;33.19;30.73;100134.59;4968499;27;97885;-74
2023/05/10 07:29:39;;;;;;;;;;;;;;;33.59;30.66;100137.38;4958057;27;98106;-73
2023/05/10 07:32:06;;;;;;;;;;;;;;;33.96;30.60;100132.56;4982755;27;98850;-76
2023/05/10 07:34:34;;;;;;;;;;;;;;;34.30;30.91;100134.94;4986445;27;97933;-76
2023/05/10 07:37:02;;;;;;;;;;;;;;;34.65;30.56;100143.69;4970261;27;99034;-74
2023/05/10 07:39:32;;;;;;;;;;;;;;;35.06;30.79;100137.41;4971902;27;97991;-76
2023/05/10 07:41:59;;;;;;;;;;;;;;;35.50;30.61;100134.16;4967569;27;98537;-75
2023/05/10 07:44:27;;;;;;;;;;;;;;;35.95;30.41;100131.13;4978828;27;127113;-77
2023/05/10 07:46:55;;;;;;;;;;;;;;;36.40;30.28;100140.53;4978970;27;98151;-77
2023/05/10 07:49:24;;;;;;;;;;;;;;;36.84;29.83;100147.03;4976291;27;98450;-75
2023/05/10 07:51:50;;;;;;;;;;;;;;;37.38;29.84;100134.66;4974787;27;98420;-75
2023/05/10 07:54:17;;;;;;;;;;;;;;;37.99;29.55;100135.13;4968040;27;97973;-77
2023/05/10 07:56:47;;;;;;;;;;;;;;;38.61;29.46;100126.50;4987139;27;98094;-76
2023/05/10 07:59:16;;;;;;;;;;;;;;;39.23;29.14;100134.63;4964027;27;98180;-77
2023/05/10 08:01:44;;;;;;;;;;;;;;;39.77;29.24;100129.31;4978625;27;97854;-75
2023/05/10 08:04:11;;;;;;;;;;;;;;;40.33;28.92;100141.88;4985363;27;98481;-75
2023/05/10 08:06:39;;;;;;;;;;;;;;;40.92;28.74;100121.50;4967913;27;98260;-76
2023/05/10 08:09:11;;;;;;;;;;;;;;;41.63;28.69;100142.31;4987595;27;98092;-76
2023/05/10 08:11:41;;;;;;;;;;;;;;;42.40;28.44;100138.28;4983171;27;101260;-79
2023/05/10 08:14:07;;;;;;;;;;;;;;;43.15;27.78;100139.41;4973826;27;98540;-78
2023/05/10 08:16:34;;;;;;;;;;;;;;;43.93;27.54;100139.28;4985303;27;98195;-76
2023/05/10 08:19:01;;;;;;;;;;;;;;;44.69;27.33;100137.84;4972930;27;98058;-75
2023/05/10 08:21:31;;;;;;;;;;;;;;;45.56;27.10;100139.03;4985963;27;97915;-75
2023/05/10 08:24:03;;;;;;;;;;;;;;;46.39;26.76;100134.47;4985826;27;98371;-76
2023/05/10 08:26:34;;;;;;;;;;;;;;;47.06;26.79;100122.69;4975665;27;98048;-75
2023/05/10 08:29:01;;;;;;;;;;;;;;;47.81;26.58;100130.88;4971106;27;99238;-79
2023/05/10 08:31:28;;;;;;;;;;;;;;;48.50;26.41;100126.72;4984411;27;98199;-79
2023/05/10 08:33:55;;;;;;;;;;;;;;;49.12;26.13;100132.28;4987656;27;98172;-79
2023/05/10 08:36:24;;;;;;;;;;;;;;;49.68;26.24;100126.94;4964350;27;98138;-75
2023/05/10 08:38:55;;;;;;;;;;;;;;;50.06;26.14;100127.50;4989124;27;98268;-74
2023/05/10 08:41:23;;;;;;;;;;;;;;;50.45;26.27;100114.47;4971700;27;98714;-81
2023/05/10 08:43:55;;;;;;;;;;;;;;;51.00;26.19;100111.66;4982159;27;98221;-74
2023/05/10 08:46:25;;;;;;;;;;;;;;;51.68;25.93;100114.34;4984572;27;98173;-74
2023/05/10 08:48:53;;;;;;;;;;;;;;;52.28;25.74;100115.28;4969989;27;98469;-83
2023/05/10 08:51:27;;;;;;;;;;;;;;;52.39;25.91;100114.91;4982777;27;98323;-83
2023/05/10 08:53:54;;;;;;;;;;;;;;;52.76;25.81;100115.63;4967762;27;100995;-81
2023/05/10 08:56:21;;;;;;;;;;;;;;;52.78;25.90;100109.31;4972618;27;97980;-81
2023/05/10 08:58:50;;;;;;;;;;;;;;;52.92;25.59;100111.47;4987068;27;98019;-76
2023/05/10 09:01:21;;;;;;;;;;;;;;;52.96;25.47;100111.09;4987197;27;99541;-77
2023/05/10 09:03:48;;;;;;;;;;;;;;;53.10;25.41;100100.94;4983521;27;98099;-76
2023/05/10 09:06:16;;;;;;;;;;;;;;;53.43;25.63;100112.63;4985152;27;98183;-79
2023/05/10 09:08:44;;;;;;;;;;;;;;;53.60;25.14;100104.19;4980458;27;98015;-79
2023/05/10 09:11:14;;;;;;;;;;;;;;;53.64;25.32;100115.31;4984138;27;98054;-76
2023/05/10 09:13:47;;;;;;;;;;;;;;;53.70;25.46;100104.34;4989269;27;98009;-85
2023/05/10 09:16:16;;;;;;;;;;;;;;;53.73;25.21;100114.72;4969719;27;98160;-83
2023/05/10 09:18:46;;;;;;;;;;;;;;;53.02;26.05;100111.66;4970926;27;98141;-77
2023/05/10 09:21:15;;;;;;;;;;;;;;;52.37;26.25;100105.34;4985919;27;98633;-83
2023/05/10 09:23:54;;;;;;;;;;;;;;;52.06;26.95;100104.44;5007588;27;98416;-82
2023/05/10 09:26:27;;;;;;;;;;;;;;;51.96;26.98;100109.94;4985383;27;98152;-76
2023/05/10 09:29:02;;;;;;;;;;;;;;;52.25;26.54;100102.81;4980934;27;98084;-80
2023/05/10 09:31:54;;;;;;;;;;;;;;;52.87;26.15;100111.63;4997932;27;98687;-81
2023/05/10 09:34:32;;;;;;;;;;;;;;;53.79;25.58;100108.75;4988021;27;99194;-75
2023/05/10 09:37:02;;;;;;;;;;;;;;;54.38;25.21;100114.88;4969660;27;98193;-79
2023/05/10 09:39:38;;;;;;;;;;;;;;;54.96;24.34;100112.06;4967188;27;98317;-78
2023/05/10 09:42:10;;;;;;;;;;;;;;;55.54;24.23;100118.53;4973897;27;98641;-79
2023/05/10 09:44:38;;;;;;;;;;;;;;;55.69;24.50;100114.69;4978773;27;98233;-82
2023/05/10 09:47:11;;;;;;;;;;;;;;;56.10;24.02;100097.88;4965776;27;98296;-77
2023/05/10 09:49:38;;;;;;;;;;;;;;;56.11;24.01;100099.41;4975993;27;99050;-82
2023/05/10 09:52:06;;;;;;;;;;;;;;;56.26;24.38;100098.47;4977617;27;98057;-82
2023/05/10 09:54:35;;;;;;;;;;;;;;;56.71;23.63;100091.25;4969150;27;97999;-82
2023/05/10 09:57:06;;;;;;;;;;;;;;;56.81;24.00;100089.19;4971453;27;97983;-78
2023/05/10 09:59:37;;;;;;;;;;;;;;;56.89;23.93;100091.97;4961746;27;98181;-78
2023/05/10 10:02:07;;;;;;;;;;;;;;;56.99;24.06;100091.97;4986403;27;98765;-78
2023/05/10 10:04:40;;;;;;;;;;;;;;;56.91;24.15;100082.66;4965399;27;98070;-82
2023/05/10 10:07:18;;;;;;;;;;;;;;;56.94;23.73;100082.22;4982592;27;98117;-83
2023/05/10 10:09:47;;;;;;;;;;;;;;;56.94;24.46;100076.44;4976460;27;98512;-78
2023/05/10 10:12:15;;;;;;;;;;;;;;;57.06;23.63;100085.31;4959296;27;98269;-77
2023/05/10 10:14:52;;;;;;;;;;;;;;;57.32;23.92;100072.13;4987643;27;116851;-76
2023/05/10 10:17:20;;;;;;;;;;;;;;;57.23;23.92;100064.19;4973903;27;97876;-81
2023/05/10 10:19:54;;;;;;;;;;;;;;;57.10;24.12;100067.53;4973514;27;98220;-77
2023/05/10 10:22:22;;;;;;;;;;;;;;;56.92;24.33;100069.75;4992737;27;98349;-80
2023/05/10 10:24:55;;;;;;;;;;;;;;;57.19;24.06;100060.97;4986845;27;99120;-76
2023/05/10 10:27:29;;;;;;;;;;;;;;;57.22;23.46;100066.31;4986665;27;98075;-78
2023/05/10 10:30:02;;;;;;;;;;;;;;;57.03;23.98;100055.47;4969649;27;98321;-82
2023/05/10 10:32:48;;;;;;;;;;;;;;;56.88;24.17;100058.63;4986784;27;98128;-76
2023/05/10 10:35:18;;;;;;;;;;;;;;;56.71;23.68;100055.78;4970212;27;98469;-80
2023/05/10 10:37:48;;;;;;;;;;;;;;;56.81;23.71;100057.38;4969115;27;97974;-80
2023/05/10 10:40:28;;;;;;;;;;;;;;;56.79;23.57;100063.00;4982077;27;98073;-74
2023/05/10 10:42:57;;;;;;;;;;;;;;;56.58;23.67;100063.50;4987173;27;98769;-81
2023/05/10 10:45:33;;;;;;;;;;;;;;;56.57;23.90;100059.09;4968247;27;98456;-79
2023/05/10 10:48:25;;;;;;;;;;;;;;;56.60;23.92;100054.25;4969184;27;98360;-79
2023/05/10 10:51:02;;;;;;;;;;;;;;;56.57;23.58;100055.44;4986940;27;98400;-80
2023/05/10 10:53:31;;;;;;;;;;;;;;;56.41;24.19;100051.25;4967244;27;98127;-82
2023/05/10 10:56:09;;;;;;;;;;;;;;;56.30;24.25;100052.53;4988769;27;97933;-77
2023/05/10 10:58:41;;;;;;;;;;;;;;;56.15;24.12;100056.41;4964328;27;99939;-78
2023/05/10 11:01:23;;;;;;;;;;;;;;;55.90;24.40;100053.66;4982614;27;97916;-77
2023/05/10 11:03:59;;;;;;;;;;;;;;;55.96;24.17;100059.91;4989519;27;98356;-80
2023/05/10 11:06:34;;;;;;;;;;;;;;;56.06;23.89;100051.31;5000388;27;98543;-78
2023/05/10 11:09:09;;;;;;;;;;;;;;;55.79;24.21;100048.38;4992612;27;98041;-81
2023/05/10 11:11:55;;;;;;;;;;;;;;;55.50;24.05;100051.00;4987558;27;98161;-77
2023/05/10 11:14:22;;;;;;;;;;;;;;;55.12;23.97;100040.59;4959158;27;99383;-80
2023/05/10 11:16:52;;;;;;;;;;;;;;;54.91;24.39;100046.75;4970220;27;97960;-80
2023/05/10 11:19:28;;;;;;;;;;;;;;;54.41;24.71;100043.78;4985864;27;98441;-79
2023/05/10 11:22:05;;;;;;;;;;;;;;;53.83;24.97;100046.53;4960603;27;99460;-79
2023/05/10 11:24:35;;;;;;;;;;;;;;;53.18;25.34;100031.84;4978419;27;98149;-80
2023/05/10 11:27:08;;;;;;;;;;;;;;;52.73;25.09;100033.41;4968302;27;100970;-78
2023/05/10 11:29:37;;;;;;;;;;;;;;;52.09;25.81;100035.13;4967242;27;98490;-78
2023/05/10 11:32:09;;;;;;;;;;;;;;;51.25;25.88;100035.44;4952689;27;98312;-76
2023/05/10 11:34:37;;;;;;;;;;;;;;;50.74;26.46;100032.25;4970663;27;98320;-81
2023/05/10 11:37:04;;;;;;;;;;;;;;;50.37;26.44;100048.50;4959695;27;98611;-81
2023/05/10 11:39:37;;;;;;;;;;;;;;;50.16;26.60;100044.78;4951266;27;98129;-79
2023/05/10 11:42:08;;;;;;;;;;;;;;;50.04;26.36;100047.13;4971701;27;98111;-78
2023/05/10 11:44:36;;;;;;;;;;;;;;;50.17;26.43;100046.31;4965777;27;98706;-77
2023/05/10 11:47:04;;;;;;;;;;;;;;;50.32;25.92;100055.13;4952064;27;98175;-78
2023/05/10 11:49:32;;;;;;;;;;;;;;;50.30;25.63;100049.16;4951051;27;98345;-79
2023/05/10 11:52:06;;;;;;;;;;;;;;;47.06;27.94;100042.88;4969785;27;97940;-80
2023/05/10 11:54:38;;;;;;;;;;;;;;;47.85;27.21;100042.88;4970538;27;98777;-80
2023/05/10 11:57:07;;;;;;;;;;;;;;;48.01;26.49;100046.81;4964574;27;98508;-80
2023/05/10 11:59:36;;;;;;;;;;;;;;;47.88;26.14;100038.94;4943459;27;98032;-80
2023/05/10 12:02:08;;;;;;;;;;;;;;;47.62;26.70;100042.31;4953006;27;98286;-80
2023/05/10 12:04:37;;;;;;;;;;;;;;;46.25;27.88;100042.34;4965501;27;98854;-81
2023/05/10 12:07:07;;;;;;;;;;;;;;;46.60;27.34;100049.44;4952688;27;98881;-80
2023/05/10 12:09:35;;;;;;;;;;;;;;;46.48;27.42;100048.69;4952069;27;98332;-79
2023/05/10 12:12:05;;;;;;;;;;;;;;;45.13;28.13;100045.47;4936030;27;99343;-81
2023/05/10 12:14:38;;;;;;;;;;;;;;;44.30;28.49;100044.81;4945019;27;98306;-80
2023/05/10 12:17:13;;;;;;;;;;;;;;;43.66;28.52;100047.03;4970592;27;98339;-79
2023/05/10 12:19:43;;;;;;;;;;;;;;;42.95;29.03;100049.56;4951129;27;98072;-80
2023/05/10 12:22:10;;;;;;;;;;;;;;;43.43;28.27;100050.97;4952002;27;98057;-74
2023/05/10 12:24:39;;;;;;;;;;;;;;;43.35;28.30;100045.78;4969370;27;98606;-77
2023/05/10 12:27:09;;;;;;;;;;;;;;;42.92;28.58;100049.78;4948219;27;99495;-81
2023/05/10 12:29:39;;;;;;;;;;;;;;;41.52;29.59;100051.66;4952811;27;98096;-80
2023/05/10 12:32:09;;;;;;;;;;;;;;;42.07;28.90;100056.56;4951671;27;98477;-80
2023/05/10 12:34:39;;;;;;;;;;;;;;;42.14;28.63;100056.13;4933426;28;99537;-80
2023/05/10 12:37:07;;;;;;;;;;;;;;;41.31;29.09;100051.56;4951574;27;99503;-81
2023/05/10 12:39:45;;;;;;;;;;;;;;;40.27;29.85;100053.50;4949468;27;98028;-81
2023/05/10 12:42:12;;;;;;;;;;;;;;;40.67;29.08;100064.31;4965759;27;98093;-80
2023/05/10 12:44:40;;;;;;;;;;;;;;;40.43;29.16;100064.34;4977723;27;98377;-79
2023/05/10 12:47:10;;;;;;;;;;;;;;;39.23;29.96;100069.06;4979704;27;98809;-81
2023/05/10 12:49:44;;;;;;;;;;;;;;;38.44;30.51;100057.72;4951648;27;98555;-78
2023/05/10 12:52:14;;;;;;;;;;;;;;;38.91;29.81;100062.06;4949871;27;97962;-83